createdAt,value
2022-10-25T00:01:23.863Z,1.40
2022-10-25T00:03:50.689Z,5.70
2022-10-25T00:06:17.530Z,4.00
2022-10-25T00:08:43.955Z,2.88
2022-10-25T00:11:18.295Z,2.67
2022-10-25T00:13:44.734Z,2.75
2022-10-25T00:16:19.999Z,3.83
2022-10-25T00:18:46.632Z,5.18
2022-10-25T00:21:13.235Z,4.55
2022-10-25T00:23:39.725Z,3.67
2022-10-25T00:26:09.068Z,2.45
2022-10-25T00:28:35.737Z,1.55
2022-10-25T00:31:04.534Z,1.50
2022-10-25T00:33:34.445Z,2.97
2022-10-25T00:36:06.237Z,7.97
2022-10-25T00:38:33.007Z,4.28
2022-10-25T00:40:59.590Z,3.28
2022-10-25T00:43:48.710Z,2.30
2022-10-25T00:46:20.739Z,4.75
2022-10-25T00:49:04.040Z,6.57
2022-10-25T00:51:41.723Z,2.78
2022-10-25T00:54:12.908Z,2.03
2022-10-25T00:56:42.905Z,2.00
2022-10-25T00:59:13.698Z,1.70
2022-10-25T01:01:41.271Z,1.58
2022-10-25T01:04:11.429Z,1.38
2022-10-25T01:06:40.528Z,1.60
2022-10-25T01:09:12.883Z,1.85
2022-10-25T01:11:39.289Z,1.45
2022-10-25T01:14:08.966Z,2.75
2022-10-25T01:17:06.825Z,3.85
2022-10-25T01:19:49.339Z,2.55
2022-10-25T01:22:18.849Z,2.38
2022-10-25T01:25:15.093Z,2.28
2022-10-25T01:27:51.306Z,1.52
2022-10-25T01:30:31.069Z,1.70
2022-10-25T01:33:05.811Z,1.30
2022-10-25T01:35:36.901Z,1.45
2022-10-25T01:38:34.775Z,1.45
2022-10-25T01:41:16.749Z,1.27
2022-10-25T01:44:03.295Z,1.70
2022-10-25T01:46:44.719Z,1.50
2022-10-25T01:49:18.909Z,1.30
2022-10-25T01:51:45.319Z,1.13
2022-10-25T01:54:21.148Z,1.15
2022-10-25T01:57:05.526Z,1.35
2022-10-25T02:00:04.714Z,1.30
2022-10-25T02:03:18.507Z,1.20
2022-10-25T02:06:03.475Z,1.23
2022-10-25T02:08:46.464Z,1.25
2022-10-25T02:11:28.409Z,1.30
2022-10-25T02:14:12.400Z,1.33
2022-10-25T02:16:41.871Z,1.02
2022-10-25T02:19:13.031Z,1.13
2022-10-25T02:21:40.819Z,0.93
2022-10-25T02:24:13.065Z,0.90
2022-10-25T02:26:43.243Z,1.20
2022-10-25T02:29:11.594Z,0.90
2022-10-25T02:31:38.651Z,1.30
2022-10-25T02:34:05.646Z,0.90
2022-10-25T02:36:32.304Z,0.90
2022-10-25T02:38:59.942Z,0.80
2022-10-25T02:41:26.655Z,1.17
2022-10-25T02:43:53.140Z,0.90
2022-10-25T02:46:21.485Z,0.75
2022-10-25T02:48:48.969Z,0.90
2022-10-25T02:51:16.161Z,0.80
2022-10-25T02:53:42.648Z,1.00
2022-10-25T02:56:19.237Z,0.80
2022-10-25T02:58:47.090Z,0.90
2022-10-25T03:01:14.727Z,0.70
2022-10-25T03:03:41.705Z,0.70
2022-10-25T03:06:10.508Z,1.10
2022-10-25T03:08:38.210Z,0.70
2022-10-25T03:11:05.485Z,0.75
2022-10-25T03:13:32.071Z,0.80
2022-10-25T03:15:58.558Z,0.80
2022-10-25T03:18:25.223Z,0.93
2022-10-25T03:20:51.649Z,0.95
2022-10-25T03:23:18.461Z,1.00
2022-10-25T03:25:44.887Z,1.05
2022-10-25T03:28:11.337Z,1.20
2022-10-25T03:30:37.740Z,1.52
2022-10-25T03:33:04.211Z,1.10
2022-10-25T03:35:30.633Z,1.05
2022-10-25T03:37:57.013Z,2.17
2022-10-25T03:40:23.652Z,1.67
2022-10-25T03:42:50.083Z,1.30
2022-10-25T03:45:16.938Z,1.45
2022-10-25T03:47:43.465Z,1.45
2022-10-25T03:50:10.121Z,1.45
2022-10-25T03:52:36.610Z,1.60
2022-10-25T03:55:04.408Z,2.13
2022-10-25T03:57:31.206Z,1.42
2022-10-25T04:00:00.560Z,2.38
2022-10-25T04:02:27.724Z,1.73
2022-10-25T04:04:54.299Z,1.70
2022-10-25T04:07:20.923Z,1.98
2022-10-25T04:09:47.374Z,1.55
2022-10-25T04:12:13.770Z,1.90
2022-10-25T04:14:40.165Z,1.90
2022-10-25T04:17:06.585Z,1.60
2022-10-25T04:19:33.163Z,2.20
2022-10-25T04:22:02.092Z,1.30
2022-10-25T04:24:29.343Z,1.38
2022-10-25T04:26:55.740Z,1.58
2022-10-25T04:29:22.815Z,3.13
2022-10-25T04:31:49.462Z,1.83
2022-10-25T04:34:15.940Z,1.70
2022-10-25T04:36:42.720Z,2.30
2022-10-25T04:39:09.234Z,2.10
2022-10-25T04:41:35.669Z,2.22
2022-10-25T04:44:02.079Z,2.13
2022-10-25T04:46:28.477Z,2.25
2022-10-25T04:48:54.868Z,1.88
2022-10-25T04:51:21.263Z,1.50
2022-10-25T04:53:47.638Z,1.70
2022-10-25T04:56:14.963Z,3.15
2022-10-25T04:58:41.394Z,3.25
2022-10-25T05:01:12.011Z,2.40
2022-10-25T05:03:38.605Z,2.88
2022-10-25T05:06:10.202Z,3.47
2022-10-25T05:08:40.042Z,3.83
2022-10-25T05:11:07.473Z,4.85
2022-10-25T05:13:36.236Z,3.30
2022-10-25T05:16:03.708Z,3.58
2022-10-25T05:18:31.514Z,4.03
2022-10-25T05:21:06.105Z,3.53
2022-10-25T05:23:34.062Z,3.83
2022-10-25T05:26:11.933Z,2.88
2022-10-25T05:28:39.644Z,3.33
2022-10-25T05:31:17.014Z,4.05
2022-10-25T05:33:47.100Z,2.92
2022-10-25T05:36:14.193Z,2.25
2022-10-25T05:38:41.211Z,2.30
2022-10-25T05:41:09.564Z,2.38
2022-10-25T05:43:36.108Z,2.58
2022-10-25T05:46:11.414Z,2.20
2022-10-25T05:48:38.439Z,2.20
2022-10-25T05:51:33.522Z,2.50
2022-10-25T05:54:06.407Z,2.28
2022-10-25T05:56:34.279Z,2.88
2022-10-25T05:59:08.590Z,2.85
2022-10-25T06:01:36.259Z,2.75
2022-10-25T06:04:03.976Z,3.17
2022-10-25T06:06:30.545Z,2.42
2022-10-25T06:08:58.432Z,2.13
2022-10-25T06:11:26.263Z,2.00
2022-10-25T06:13:52.741Z,1.95
2022-10-25T06:16:20.363Z,2.20
2022-10-25T06:18:47.144Z,1.70
2022-10-25T06:21:16.485Z,1.67
2022-10-25T06:23:44.191Z,1.77
2022-10-25T06:26:13.814Z,2.70
2022-10-25T06:28:41.413Z,2.55
2022-10-25T06:31:13.443Z,2.00
2022-10-25T06:33:40.257Z,2.03
2022-10-25T06:36:10.429Z,1.98
2022-10-25T06:38:36.813Z,2.85
2022-10-25T06:41:05.954Z,2.60
2022-10-25T06:43:34.845Z,3.60
2022-10-25T06:46:21.262Z,2.97
2022-10-25T06:48:48.255Z,3.33
2022-10-25T06:51:15.261Z,2.63
2022-10-25T06:53:41.879Z,2.17
2022-10-25T06:56:14.163Z,2.75
2022-10-25T06:58:41.510Z,3.15
2022-10-25T07:01:11.708Z,3.95
2022-10-25T07:03:39.005Z,3.28
2022-10-25T07:06:13.307Z,5.95
2022-10-25T07:08:42.758Z,6.07
2022-10-25T07:11:14.643Z,11.13
2022-10-25T07:13:41.376Z,10.20
2022-10-25T07:16:10.514Z,9.77
2022-10-25T07:18:37.365Z,8.68
2022-10-25T07:21:11.689Z,7.43
2022-10-25T07:23:42.445Z,6.53
2022-10-25T07:26:14.377Z,7.95
2022-10-25T07:28:42.251Z,8.70
2022-10-25T07:31:12.153Z,8.02
2022-10-25T07:33:38.635Z,6.28
2022-10-25T07:36:10.710Z,3.50
2022-10-25T07:38:38.282Z,2.40
2022-10-25T07:41:05.077Z,2.10
2022-10-25T07:43:31.507Z,2.47
2022-10-25T07:45:58.003Z,2.60
2022-10-25T07:48:24.523Z,2.80
2022-10-25T07:50:50.934Z,2.85
2022-10-25T07:53:17.753Z,3.13
2022-10-25T07:55:50.363Z,2.25
2022-10-25T07:58:16.774Z,2.65
2022-10-25T08:00:43.219Z,2.40
2022-10-25T08:03:09.646Z,2.17
2022-10-25T08:05:36.128Z,2.20
2022-10-25T08:08:04.780Z,2.45
2022-10-25T08:10:32.016Z,2.15
2022-10-25T08:12:58.438Z,1.90
2022-10-25T08:15:24.891Z,1.58
2022-10-25T08:17:59.257Z,1.23
2022-10-25T08:20:49.108Z,1.05
2022-10-25T08:23:13.212Z,0.90
2022-10-25T08:25:40.471Z,0.93
2022-10-25T08:28:06.934Z,0.90
2022-10-25T08:30:34.707Z,1.10
2022-10-25T08:33:01.811Z,1.10
2022-10-25T08:35:28.268Z,0.93
2022-10-25T08:37:54.696Z,1.30
2022-10-25T08:40:26.009Z,0.90
2022-10-25T08:43:16.614Z,1.20
2022-10-25T08:45:56.229Z,1.05
2022-10-25T08:48:32.841Z,0.80
2022-10-25T08:51:10.991Z,1.08
2022-10-25T08:53:49.674Z,0.80
2022-10-25T08:56:18.211Z,0.90
2022-10-25T08:58:55.266Z,0.80
2022-10-25T09:01:44.335Z,1.10
2022-10-25T09:04:11.135Z,0.80
2022-10-25T09:06:47.347Z,1.00
2022-10-25T09:09:15.957Z,0.95
2022-10-25T09:12:16.420Z,1.10
2022-10-25T09:14:53.684Z,1.17
2022-10-25T09:17:22.347Z,1.15
2022-10-25T09:20:03.859Z,0.85
2022-10-25T09:22:35.240Z,1.08
2022-10-25T09:25:22.960Z,1.13
2022-10-25T09:28:01.304Z,1.50
2022-10-25T09:30:31.274Z,1.52
2022-10-25T09:33:04.242Z,1.00
2022-10-25T09:35:53.489Z,1.40
2022-10-25T09:38:26.882Z,1.48
2022-10-25T09:41:01.838Z,1.58
2022-10-25T09:43:52.894Z,1.23
2022-10-25T09:46:25.333Z,1.63
2022-10-25T09:49:00.778Z,1.60
2022-10-25T09:51:37.928Z,1.73
2022-10-25T09:54:17.119Z,1.60
2022-10-25T09:56:43.539Z,1.30
2022-10-25T09:59:14.289Z,1.48
2022-10-25T10:01:41.402Z,1.60
2022-10-25T10:04:34.752Z,1.23
2022-10-25T10:07:18.222Z,1.50
2022-10-25T10:09:46.189Z,1.40
2022-10-25T10:15:38.715Z,1.50
2022-10-25T10:18:30.856Z,1.73
2022-10-25T10:21:12.138Z,1.50
2022-10-25T10:23:41.515Z,1.80
2022-10-25T10:26:21.187Z,1.63
2022-10-25T10:29:00.973Z,1.90
2022-10-25T10:31:53.341Z,1.75
2022-10-25T10:34:37.985Z,1.75
2022-10-25T10:37:12.003Z,1.60
2022-10-25T10:39:56.353Z,1.92
2022-10-25T10:42:43.142Z,1.60
2022-10-25T10:45:16.291Z,1.95
2022-10-25T10:47:51.896Z,1.70
2022-10-25T10:50:24.489Z,2.00
2022-10-25T10:52:59.670Z,1.70
2022-10-25T10:55:35.941Z,1.75
2022-10-25T10:58:07.815Z,1.70
2022-10-25T11:00:35.066Z,1.90
2022-10-25T11:03:01.674Z,2.05
2022-10-25T11:05:37.235Z,1.20
2022-10-25T11:08:09.538Z,1.48
2022-10-25T11:10:37.115Z,1.55
2022-10-25T11:13:09.972Z,1.90
2022-10-25T11:16:08.743Z,1.35
2022-10-25T11:19:06.650Z,0.80
2022-10-25T11:22:10.675Z,0.90
2022-10-25T11:24:57.296Z,1.05
2022-10-25T11:27:40.220Z,1.00
2022-10-25T11:30:14.262Z,1.40
2022-10-25T11:33:04.811Z,1.00
2022-10-25T11:35:47.952Z,0.70
2022-10-25T11:38:45.996Z,0.60
2022-10-25T11:41:45.463Z,0.50
2022-10-25T11:44:30.650Z,0.50
2022-10-25T11:47:31.113Z,0.70
2022-10-25T11:50:32.923Z,0.43
2022-10-25T11:53:02.292Z,0.50
2022-10-25T11:55:40.421Z,1.00
2022-10-25T11:58:44.287Z,0.70
2022-10-25T12:01:26.564Z,0.50
2022-10-25T12:04:24.235Z,0.68
2022-10-25T12:06:56.138Z,0.40
2022-10-25T12:09:25.457Z,0.55
2022-10-25T12:12:01.398Z,0.47
2022-10-25T12:16:59.326Z,0.50
2022-10-25T12:19:29.157Z,0.50
2022-10-25T12:22:03.632Z,0.60
2022-10-25T12:24:39.255Z,0.65
2022-10-25T12:27:08.988Z,0.38
2022-10-25T12:29:39.481Z,0.57
2022-10-25T12:32:18.705Z,0.50
2022-10-25T12:34:49.928Z,0.40
2022-10-25T12:37:31.637Z,0.40
2022-10-25T12:39:58.298Z,0.40
2022-10-25T12:42:44.523Z,0.75
2022-10-25T12:48:26.362Z,0.50
2022-10-25T12:51:14.033Z,0.50
2022-10-25T12:54:03.311Z,0.40
2022-10-25T12:56:53.824Z,0.40
2022-10-25T12:59:38.986Z,0.40
2022-10-25T13:02:43.240Z,0.55
2022-10-25T13:05:37.364Z,0.43
2022-10-25T13:08:06.157Z,0.50
2022-10-25T13:10:35.837Z,0.52
2022-10-25T13:13:17.322Z,0.50
2022-10-25T13:15:47.553Z,0.60
2022-10-25T13:18:35.380Z,0.40
2022-10-25T13:21:08.193Z,0.52
2022-10-25T13:23:43.997Z,0.30
2022-10-25T13:26:11.974Z,0.50
2022-10-25T13:28:49.883Z,0.35
2022-10-25T13:31:46.796Z,0.45
2022-10-25T13:34:13.119Z,0.45
2022-10-25T13:36:51.437Z,0.60
2022-10-25T13:39:31.756Z,0.70
2022-10-25T13:42:09.361Z,0.52
2022-10-25T13:44:39.108Z,0.40
2022-10-25T13:47:25.644Z,0.50
2022-10-25T13:49:52.265Z,0.52
2022-10-25T13:52:36.966Z,0.40
2022-10-25T13:55:10.047Z,0.32
2022-10-25T13:57:53.476Z,0.30
2022-10-25T14:00:28.068Z,0.50
2022-10-25T14:03:09.754Z,0.40
2022-10-25T14:05:57.309Z,0.40
2022-10-25T14:08:38.951Z,0.50
2022-10-25T14:11:12.595Z,0.50
2022-10-25T14:13:48.128Z,0.50
2022-10-25T14:16:29.130Z,0.45
2022-10-25T14:19:02.138Z,0.50
2022-10-25T14:21:28.733Z,0.40
2022-10-25T14:23:55.568Z,0.40
2022-10-25T14:26:23.387Z,0.30
2022-10-25T14:28:50.289Z,0.30
2022-10-25T14:31:21.541Z,0.30
2022-10-25T14:33:53.650Z,0.30
2022-10-25T14:36:27.535Z,0.38
2022-10-25T14:39:15.031Z,0.32
2022-10-25T14:41:53.746Z,0.30
2022-10-25T14:44:31.840Z,0.38
2022-10-25T14:47:00.098Z,0.40
2022-10-25T14:49:27.594Z,0.50
2022-10-25T14:51:59.651Z,0.40
2022-10-25T14:54:37.011Z,0.40
2022-10-25T14:57:06.645Z,0.40
2022-10-25T14:59:42.586Z,0.30
2022-10-25T15:02:30.183Z,0.35
2022-10-25T15:04:58.697Z,0.47
2022-10-25T15:07:41.129Z,0.35
2022-10-25T15:10:30.362Z,0.40
2022-10-25T15:13:05.951Z,0.82
2022-10-25T15:15:40.465Z,0.60
2022-10-25T15:18:21.330Z,0.40
2022-10-25T15:21:14.163Z,0.40
2022-10-25T15:23:42.675Z,0.40
2022-10-25T15:26:28.985Z,0.32
2022-10-25T15:29:01.323Z,0.30
2022-10-25T15:31:30.233Z,0.50
2022-10-25T15:34:05.247Z,0.43
2022-10-25T15:36:33.448Z,0.70
2022-10-25T15:39:08.243Z,0.70
2022-10-25T15:41:36.735Z,0.57
2022-10-25T15:44:03.238Z,0.50
2022-10-25T15:46:34.779Z,0.50
2022-10-25T15:49:06.548Z,0.70
2022-10-25T15:51:34.306Z,0.60
2022-10-25T15:54:00.728Z,0.80
2022-10-25T15:56:27.285Z,0.80
2022-10-25T15:58:53.685Z,0.73
2022-10-25T16:01:21.366Z,0.60
2022-10-25T16:03:47.869Z,0.98
2022-10-25T16:06:14.671Z,0.55
2022-10-25T16:08:42.150Z,0.70
2022-10-25T16:11:18.434Z,1.20
2022-10-25T16:13:46.689Z,1.20
2022-10-25T16:16:38.897Z,1.60
2022-10-25T16:19:09.701Z,1.60
2022-10-25T16:21:36.107Z,1.20
2022-10-25T16:24:02.506Z,1.10
2022-10-25T16:26:40.848Z,1.05
2022-10-25T16:29:07.226Z,0.88
2022-10-25T16:31:33.639Z,1.25
2022-10-25T16:34:00.019Z,1.02
2022-10-25T16:36:26.394Z,1.10
2022-10-25T16:38:52.774Z,1.40
2022-10-25T16:41:23.583Z,1.35
2022-10-25T16:43:50.074Z,1.10
2022-10-25T16:46:16.504Z,1.10
2022-10-25T16:48:43.030Z,1.02
2022-10-25T16:51:14.867Z,1.20
2022-10-25T16:53:41.596Z,1.60
2022-10-25T16:56:09.147Z,1.50
2022-10-25T16:58:35.585Z,1.15
2022-10-25T17:01:02.043Z,1.20
2022-10-25T17:03:28.460Z,1.00
2022-10-25T17:05:54.849Z,1.05
2022-10-25T17:08:21.249Z,1.20
2022-10-25T17:10:47.646Z,1.52
2022-10-25T17:13:15.935Z,1.85
2022-10-25T17:15:42.694Z,1.88
2022-10-25T17:18:12.753Z,1.90
2022-10-25T17:20:56.668Z,2.30
2022-10-25T17:23:23.319Z,1.65
2022-10-25T17:26:00.458Z,1.80
2022-10-25T17:28:27.241Z,2.20
2022-10-25T17:30:53.659Z,2.22
2022-10-25T17:33:20.063Z,3.55
2022-10-25T17:35:46.588Z,3.47
2022-10-25T17:38:14.323Z,6.20
2022-10-25T17:40:43.012Z,5.75
2022-10-25T17:43:11.655Z,5.63
2022-10-25T17:45:38.098Z,5.70
2022-10-25T17:48:05.743Z,5.10
2022-10-25T17:50:32.735Z,1.90
2022-10-25T17:52:59.131Z,1.30
2022-10-25T17:55:32.110Z,2.03
2022-10-25T17:57:59.539Z,2.42
2022-10-25T18:00:25.989Z,2.08
2022-10-25T18:02:53.252Z,2.10
2022-10-25T18:05:21.616Z,2.15
2022-10-25T18:07:48.692Z,2.00
2022-10-25T18:10:15.378Z,1.98
2022-10-25T18:12:41.794Z,2.00
2022-10-25T18:15:08.681Z,2.33
2022-10-25T18:17:35.092Z,2.50
2022-10-25T18:20:01.547Z,2.50
2022-10-25T18:22:28.019Z,2.38
2022-10-25T18:24:54.410Z,2.08
2022-10-25T18:27:20.917Z,2.00
2022-10-25T18:29:47.374Z,1.90
2022-10-25T18:32:13.819Z,1.90
2022-10-25T18:34:40.219Z,1.92
2022-10-25T18:37:07.095Z,2.45
2022-10-25T18:39:33.495Z,2.42
2022-10-25T18:41:59.877Z,2.45
2022-10-25T18:44:26.311Z,2.65
2022-10-25T18:46:53.887Z,2.65
2022-10-25T18:49:20.471Z,3.10
2022-10-25T18:51:46.879Z,3.08
2022-10-25T18:54:13.375Z,2.97
2022-10-25T18:56:39.761Z,2.78
2022-10-25T18:59:06.218Z,3.00
2022-10-25T19:01:33.236Z,3.70
2022-10-25T19:04:04.085Z,3.33
2022-10-25T19:06:31.684Z,3.47
2022-10-25T19:08:58.570Z,3.53
2022-10-25T19:11:24.962Z,3.38
2022-10-25T19:13:55.793Z,4.95
2022-10-25T19:16:23.137Z,3.83
2022-10-25T19:18:49.626Z,3.83
2022-10-25T19:21:18.212Z,3.70
2022-10-25T19:23:46.226Z,3.83
2022-10-25T19:26:16.549Z,4.00
2022-10-25T19:28:43.708Z,3.13
2022-10-25T19:31:13.686Z,3.10
2022-10-25T19:33:44.132Z,3.45
2022-10-25T19:36:11.421Z,3.42
2022-10-25T19:38:38.422Z,3.28
2022-10-25T19:41:08.101Z,3.10
2022-10-25T19:43:34.847Z,2.40
2022-10-25T19:46:04.524Z,2.22
2022-10-25T19:48:31.975Z,2.25
2022-10-25T19:51:06.751Z,2.47
2022-10-25T19:53:33.312Z,2.95
2022-10-25T19:56:05.463Z,3.17
2022-10-25T19:58:32.156Z,3.53
2022-10-25T20:01:06.302Z,2.60
2022-10-25T20:03:33.711Z,3.05
2022-10-25T20:06:03.766Z,2.75
2022-10-25T20:08:33.541Z,2.70
2022-10-25T20:11:00.466Z,2.92
2022-10-25T20:13:26.943Z,2.78
2022-10-25T20:15:55.673Z,3.15
2022-10-25T20:18:30.570Z,3.03
2022-10-25T20:21:06.048Z,2.65
2022-10-25T20:23:32.539Z,3.20
2022-10-25T20:25:59.295Z,3.20
2022-10-25T20:28:25.670Z,3.13
2022-10-25T20:30:52.303Z,3.55
2022-10-25T20:33:20.363Z,3.20
2022-10-25T20:35:46.843Z,3.08
2022-10-25T20:38:13.423Z,3.30
2022-10-25T20:40:40.069Z,3.20
2022-10-25T20:43:06.566Z,2.85
2022-10-25T20:45:33.424Z,3.15
2022-10-25T20:48:00.332Z,2.50
2022-10-25T20:50:28.238Z,2.55
2022-10-25T20:53:10.955Z,3.10
2022-10-25T20:55:38.046Z,2.58
2022-10-25T20:58:04.885Z,2.78
2022-10-25T21:00:32.314Z,2.40
2022-10-25T21:02:59.344Z,3.05
2022-10-25T21:05:25.850Z,2.60
2022-10-25T21:07:52.329Z,2.35
2022-10-25T21:10:18.746Z,2.10
2022-10-25T21:12:45.154Z,2.22
2022-10-25T21:15:12.256Z,2.30
2022-10-25T21:17:39.201Z,1.83
2022-10-25T21:20:06.401Z,2.13
2022-10-25T21:22:32.887Z,1.90
2022-10-25T21:24:59.426Z,2.47
2022-10-25T21:27:25.814Z,1.70
2022-10-25T21:29:52.215Z,1.90
2022-10-25T21:32:18.613Z,1.73
2022-10-25T21:34:45.023Z,1.77
2022-10-25T21:37:11.407Z,1.70
2022-10-25T21:39:37.809Z,1.77
2022-10-25T21:42:04.353Z,2.42
2022-10-25T21:44:30.740Z,2.13
2022-10-25T21:46:57.148Z,1.95
2022-10-25T21:49:23.543Z,2.33
2022-10-25T21:51:49.910Z,3.00
2022-10-25T21:54:16.433Z,2.13
2022-10-25T21:56:42.823Z,2.20
2022-10-25T21:59:09.272Z,1.83
2022-10-25T22:01:35.824Z,2.17
2022-10-25T22:04:02.287Z,2.10
2022-10-25T22:06:28.797Z,2.55
2022-10-25T22:08:55.731Z,1.90
2022-10-25T22:11:23.336Z,2.40
2022-10-25T22:13:55.555Z,2.33
2022-10-25T22:16:22.455Z,1.88
2022-10-25T22:18:54.699Z,2.50
2022-10-25T22:21:21.663Z,1.48
2022-10-25T22:23:48.272Z,1.83
2022-10-25T22:26:16.678Z,1.83
2022-10-25T22:28:43.137Z,1.80
2022-10-25T22:31:12.777Z,1.80
2022-10-25T22:33:40.059Z,1.48
2022-10-25T22:36:16.126Z,1.60
2022-10-25T22:38:42.964Z,2.03
2022-10-25T22:41:11.535Z,2.47
2022-10-25T22:43:38.841Z,1.80
2022-10-25T22:46:07.988Z,1.70
2022-10-25T22:48:36.305Z,1.85
2022-10-25T22:51:03.870Z,1.75
2022-10-25T22:53:30.349Z,1.45
2022-10-25T22:55:57.813Z,1.70
2022-10-25T22:58:25.487Z,2.08
2022-10-25T23:00:57.829Z,1.63
2022-10-25T23:03:24.272Z,1.75
2022-10-25T23:05:58.603Z,1.80
2022-10-25T23:08:26.599Z,1.83
2022-10-25T23:11:03.863Z,1.90
2022-10-25T23:13:35.169Z,1.30
2022-10-25T23:16:03.129Z,1.70
2022-10-25T23:18:30.053Z,1.90
2022-10-25T23:20:58.657Z,1.77
2022-10-25T23:23:26.633Z,1.40
2022-10-25T23:25:54.460Z,1.50
2022-10-25T23:28:21.159Z,1.25
2022-10-25T23:30:47.537Z,1.70
2022-10-25T23:33:13.981Z,1.67
2022-10-25T23:35:41.758Z,1.70
2022-10-25T23:38:12.557Z,2.00
2022-10-25T23:40:39.972Z,1.95
2022-10-25T23:43:06.797Z,1.42
2022-10-25T23:45:33.206Z,2.28
2022-10-25T23:47:59.586Z,1.60
2022-10-25T23:50:26.052Z,1.60
2022-10-25T23:52:52.471Z,1.42
2022-10-25T23:55:18.971Z,1.20
2022-10-25T23:57:45.401Z,1.38
